Last 30 Days

Scotts Valley

Daily Data | America/Los_Angeles
as of 5/18/21 4:45 PM PDT
Date Daily Max Temp (°F) Time of Max Temp Daily Min Temp (°F) Time of Min Temp Daily Rain (In) Monthly Rain (In) Seasonal Rainfall (In) Daily Max Wind (mph) Time of Max Wind Max Wind Dir (°) Wind Spd (mph) Dew Pt (°F) Max RH (%) Min RH (%) Daily Leaf Wet Hrs (hrs) Degree Hrs (hrs) Chilling <=45F (hrs) Chill Hrs 32-45F (hrs) Utah Chilling (Units) Chill Portions Hrs <= 32F (hrs) Hrs <= 28F (hrs) GDDs (DL) GDDs (Mx/Mn) Seas GDDs (DL) Seas GDDs (Smpl) Hrs 70-85F (hrs) Hrs > 95F (hrs) Powdery Mildew Stress (pts) Bee Hrs Today (Hrs) Storm Total (In) Daily Max Rain Intensity (In/Hr) Time of Max Rain Intensity Max 1 Min Rain (In) Max 1 Min Rain Time Max 15 Min Rain (In) Max 15 Min Precip Time Max 60 Min Rain (In) Max 60 Min Rain Time Bat Volt Min Day (V)
5/17/21 78.5 1458 40.6 0558 0.00 0.10 11.84 19.8 1706 SW | 236 2.5 44.8 99 26 6.2 86.2 5.0 5.0 -5.0 - 0.0 0.0 12.6 9.6 489 301 7.74 0.00 90 12.2 - - - - - - - - - 12.6
5/16/21 82.8 1309 44.4 0607 0.00 0.10 11.84 15.0 1531 WNW | 291 1.9 50.5 99 28 6.8 134.6 0.6 0.6 -7.0 - 0.0 0.0 14.8 13.6 476 291 10.02 0.00 70 12.4 - - - - - - - - - 12.6
5/15/21 82.3 1307 39.4 0600 0.10 0.10 11.84 13.6 1346 WSW | 256 1.4 49.0 98 25 5.4 58.7 3.9 3.9 -2.5 - 0.0 0.0 10.7 10.9 461 278 4.61 0.00 80 11.0 0.10 0.68 1541 0.02 1542 0.05 1542 0.10 1545 12.6
5/14/21 84.6 1336 40.0 0618 0.00 0.00 11.74 21.7 1444 W | 271 2.4 43.8 98 18 2.5 136.1 4.7 4.7 -4.5 - 0.0 0.0 14.2 12.3 450 267 9.53 0.00 60 12.3 - - - - - - - - - 12.5
5/13/21 90.8 1401 39.0 0557 0.00 0.00 11.74 16.6 1846 W | 280 1.7 42.3 98 10 0.0 217.9 5.7 5.7 -6.0 - 0.0 0.0 18.4 14.9 436 254 3.36 0.00 70 12.3 - - - - - - - - - 12.5
5/12/21 89.5 1440 38.0 0611 0.00 0.00 11.74 15.3 1644 W | 259 1.7 41.2 94 9 0.0 205.5 6.0 6.0 -4.5 - 0.0 0.0 17.4 13.8 418 240 2.86 0.00 80 12.2 - - - - - - - - - 12.5
5/11/21 89.7 1459 37.8 0608 0.00 0.00 11.74 15.9 1722 W | 281 1.6 38.9 98 14 0.0 192.9 6.1 6.1 -4.0 - 0.0 0.0 16.6 13.7 400 226 4.00 0.00 90 12.0 - - - - - - - - - 12.6
5/10/21 87.8 1530 36.0 0625 0.00 0.00 11.74 12.2 1837 WSW | 252 1.4 37.2 98 10 3.9 175.9 6.4 6.4 -3.0 - 0.0 0.0 15.7 11.9 384 212 4.12 0.00 100 11.8 - - - - - - - - - 12.6
5/9/21 79.9 1333 37.7 0629 0.00 0.00 11.74 17.2 1425 NW | 307 2.0 41.2 94 22 0.0 99.5 4.2 4.2 -3.0 - 0.0 0.0 12.5 8.8 368 200 8.51 0.00 90 11.9 - - - - - - - - - 12.5
5/8/21 83.7 1407 31.9 0608 0.00 0.00 11.74 17.0 1452 SW | 216 2.0 37.6 99 14 4.8 128.9 6.7 6.4 -8.0 - 0.4 0.0 14.6 7.8 356 191 8.96 0.00 70 11.4 - - - - - - - - - 12.6
5/7/21 74.1 1550 35.3 0635 0.00 0.00 11.74 14.9 1255 SSW | 208 1.8 38.7 98 28 6.0 39.2 8.2 8.2 1.5 - 0.0 0.0 8.5 4.7 341 184 4.34 0.00 80 11.2 - - - - - - - - - 12.6
5/6/21 73.9 1409 38.8 0602 0.00 0.00 11.74 21.3 1604 WSW | 254 2.9 38.3 94 16 0.0 48.5 2.8 2.8 -3.0 - 0.0 0.0 10.3 6.3 332 179 5.02 0.00 90 12.2 - - - - - - - - - 12.5
5/5/21 88.9 1420 39.2 0631 0.00 0.00 11.74 15.1 1444 WSW | 255 1.8 43.2 99 18 5.4 190.5 5.8 5.8 -7.0 - 0.0 0.0 17.6 14.0 322 172 4.05 0.00 100 11.8 - - - - - - - - - 12.5
5/4/21 84.3 1528 41.1 0636 0.00 0.00 11.74 12.0 1759 W | 264 1.8 45.0 96 26 0.0 137.9 3.3 3.3 -5.0 - 0.0 0.0 14.4 12.7 304 158 9.69 0.00 100 12.0 - - - - - - - - - 12.6
5/3/21 83.3 1448 36.5 0600 0.00 0.00 11.74 14.0 1548 W | 264 1.7 42.5 99 23 6.1 114.1 6.5 6.5 -4.0 - 0.0 0.0 13.4 9.9 290 146 8.67 0.00 90 11.6 - - - - - - - - - 12.6
5/2/21 76.2 1438 43.0 0323 0.00 0.00 11.74 16.7 1344 WSW | 249 3.0 42.1 93 25 0.0 58.6 1.8 1.8 -3.0 - 0.0 0.0 10.8 9.6 277 136 6.64 0.00 70 12.3 - - - - - - - - - 12.6
5/1/21 74.5 1426 44.6 0630 0.00 0.00 11.74 21.2 1512 W | 274 3.1 45.5 89 43 0.0 53.6 0.5 0.5 -6.0 - 0.0 0.0 11.2 9.6 266 126 5.81 0.00 80 12.2 - - - - - - - - - 12.6
4/30/21 84.9 1544 35.2 0639 0.00 0.10 11.74 12.7 1647 W | 275 1.8 39.5 95 14 0.0 129.5 6.8 6.8 -3.5 - 0.0 0.0 13.5 10.0 255 117 8.88 0.00 60 11.4 - - - - - - - - - 12.5
4/29/21 88.8 1511 33.1 0630 0.00 0.10 11.74 12.2 1423 WSW | 240 1.4 37.5 98 11 1.3 165.8 7.7 7.7 -4.5 95 0.0 0.0 15.1 10.9 241 107 3.42 0.00 70 11.4 - - - - - - - - - 12.6
4/28/21 83.9 1509 31.1 0631 0.00 0.10 11.74 16.8 1718 W | 263 1.3 35.4 99 15 5.2 121.7 8.5 7.2 -5.5 95 1.3 0.0 12.9 7.5 226 96 8.93 0.00 50 11.1 - - - - - - - - - 12.6
4/27/21 75.5 1613 27.6 0621 0.00 0.10 11.74 19.3 1707 W | 263 1.5 34.2 99 19 3.6 43.5 10.0 4.3 -4.0 95 5.7 0.7 8.2 1.6 213 88 4.72 0.00 60 10.1 - - - - - - - - - 12.6
4/26/21 61.5 1656 27.6 0544 0.00 0.10 11.74 15.8 1713 W | 261 1.9 34.1 99 35 4.8 0.0 11.2 6.0 8.0 95 5.2 0.9 2.6 0.0 205 87 0.00 0.00 70 6.5 - - - - - - - - - 12.6
4/25/21 59.3 1527 35.8 0052 0.10 0.10 11.74 15.0 1413 W | 259 1.8 38.6 96 41 6.8 0.0 12.4 12.4 18.5 94 0.0 0.0 1.0 0.0 202 87 0.00 0.00 80 1.5 0.10 0.08 1003 0.01 0752 0.02 0805 0.05 1025 12.6
4/24/21 60.0 1327 44.1 0059 0.00 0.00 11.64 17.0 1635 SSW | 213 3.1 38.5 77 42 0.1 0.0 0.4 0.4 12.0 94 0.0 0.0 2.2 2.0 201 87 0.00 0.00 90 5.9 - - - - - - - - - 12.6
4/23/21 76.4 1415 34.1 0638 0.00 0.00 11.64 17.6 1614 WNW | 288 2.1 36.8 98 17 2.0 50.9 6.8 6.8 -1.5 93 0.0 0.0 9.3 5.2 199 85 4.78 0.00 100 11.1 - - - - - - - - - 12.5
4/22/21 78.7 1417 33.2 0611 0.00 0.00 11.64 16.4 1326 NE | 47 2.2 39.7 99 23 5.0 77.2 7.1 7.1 -3.5 93 0.0 0.0 11.4 6.0 190 80 7.16 0.00 100 11.0 - - - - - - - - - 12.6
4/21/21 78.9 1503 33.8 0644 0.00 0.00 11.64 12.3 1821 W | 268 1.7 38.2 99 18 6.0 83.5 8.7 8.7 -0.5 93 0.0 0.0 10.8 6.4 178 74 7.58 0.00 80 10.9 - - - - - - - - - 12.6
4/20/21 71.2 1529 39.2 0627 0.00 0.00 11.64 24.1 1614 NE | 36 2.6 40.1 94 34 0.0 18.8 5.7 5.7 2.5 93 0.0 0.0 7.3 5.2 168 67 0.64 0.00 90 10.6 - - - - - - - - - 12.6
4/19/21 81.1 1352 33.9 0633 0.00 0.00 11.64 20.1 1611 W | 261 2.4 37.0 97 18 0.9 98.2 6.8 6.8 -4.0 93 0.0 0.0 12.7 7.5 160 62 8.39 0.00 70 11.1 - - - - - - - - - 12.6
4/18/21 84.6 1508 30.3 0626 0.00 0.00 11.64 15.8 1627 WSW | 247 1.6 33.3 97 10 2.2 137.4 8.5 6.5 -4.5 93 2.0 0.0 13.3 7.5 148 54 9.29 0.00 50 10.7 - - - - - - - - - 12.5
Max 90.8 - 44.6 - 0.10 0.10 - 24.1 - - 3.1 50.5 99 43 6.8 217.9 12.4 12.4 18.5 95 5.7 0.9 18.4 14.9 - - 10.02 0.00 - 12.4 0.10 0.68 - 0.02 - 0.05 - 0.10 - 12.6
Avg - - - - - 0.03 - - - - 2.0 40.2 - - - - 6.0 5.5 -2.2 94 0.5 0.1 11.8 8.5 - - 5.72 0.00 - 10.9 0.10 - - - - - - - - -
Min 59.3 - 27.6 - 0.00 0.00 - 12.0 - - 1.3 33.3 77 9 0.0 0.0 0.4 0.4 -8.0 93 0.0 0.0 1.0 0.0 - - 0.00 0.00 - 1.5 0.10 0.08 - 0.01 - 0.02 - 0.05 - 12.5
Total - - - - - - - - - - - - - - - - 178.9 164.5 -64.5 - 14.4 1.6 354.2 253.8 - - 171.72 0.00 - 326.1 - - - - - - - - - -